Söndag 2022-07-03 01:25:40 vecka 26, namnsdag Aurora, imorgon Ulrika, Ulla  [Huvudmeny]   minomax.se   minomax.se/metar   minomax.se/flyg   wwwinfo.se   medd.nu  -  meddelanden   kakor METAR-data Visa METAR-temperaturer och data
Land: skriv landsbeteckning, 2 bokstäver, tex. se för Sverige. Sök land Sökord: skriv sökord, eller lämna tomt så visas alla Visar METAR för SE- Sverige Land/ IATA/ICAO Id Flygplats Temp Tid Datum region METAR... ---- ------------------------- ---- ----- ---------- ------ --- ------------... ESCF Linköping/Malmen Air Base 14 00:50 2022-07-03 SE-E --- ESCF 022250Z AUTO 19005KT 9999 NCD 14/11 Q1020= ESCM Uppsala Airport 14 00:50 2022-07-03 SE-C --- ESCM 022250Z AUTO 22007KT 9999 NCD 14/10 Q1018= ESDF Ronneby Airport 13 00:50 2022-07-03 SE-K RNB ESDF 022250Z AUTO 00000KT 9999 NCD 13/13 Q1022= ESGG Gothenburg-Landvetter Air 14 00:50 2022-07-03 SE-Q GOT ESGG 022250Z 19008KT 9999 SCT031 14/11 Q1019= ESGJ Jönköping Airport 12 00:50 2022-07-03 SE-F JKG ESGJ 022250Z AUTO 19004KT 9999 NCD 12/11 Q1020=
ESGP Gothenburg City Airport 15 00:50 2022-07-03 SE-Q GSE ESGP 022250Z AUTO 17003KT 150V240 9999 NCD 15/12 Q1019= ESGR Skövde Airport 3 (14:50 2022-03-31) SE-Q KVB ESGR 311250Z AUTO /////KT 9999 -RA OVC055/// 03/M08 Q1011 REUP= ESGT Trollhättan-Vänersborg Ai 15 00:50 2022-07-03 SE-Q THN ESGT 022250Z AUTO 22006KT 9999 FEW066/// 15/12 Q1018= ESIA Karlsborg Air Base 13 00:50 2022-07-03 SE-Q --- ESIA 022250Z AUTO 21004KT 9999 NCD 13/12 Q1019= ESIB Såtenäs Air Base 14 00:50 2022-07-03 SE-Q --- ESIB 022250Z AUTO 18008KT 9999 NCD 14/12 Q1018=
ESKM Mora Airport 15 00:50 2022-07-03 SE-W MXX ESKM 022250Z AUTO 23005KT 200V340 9999 NCD 15/12 Q1016= ESKN Stockholm / Nyköping/Stoc 14 00:50 2022-07-03 SE-D NYO ESKN 022250Z 23003KT CAVOK 14/10 Q1019= ESKS Sälen - Trysil Airport 12 00:50 2022-07-03 SE-W SCR ESKS 022250Z AUTO 17008KT 9999 SCT071/// 12/10 Q1016= ESMK Kristianstad Airport 13 00:50 2022-07-03 SE-M KID ESMK 022250Z AUTO 21005KT 9999 NCD 13/12 Q1022= ESMQ Kalmar Airport XXX 00:50 2022-07-03 SE-H KLR ESMQ 022250Z AUTO 24005KT 9999 R16///// R34/P1500N NCD ///// Q1021=
ESMS Malmö Sturup Airport 13 00:50 2022-07-03 SE-M MMX ESMS 022250Z 08004KT CAVOK 13/12 Q1022= ESMT Halmstad Airport 16 00:50 2022-07-03 SE-N HAD ESMT 022250Z AUTO 00000KT 9999 FEW056/// 16/12 Q1021= ESMX Växjö Kronoberg Airport 14 00:50 2022-07-03 SE-G VXO ESMX 022250Z AUTO 21006KT 9999 NCD 14/12 Q1021= ESND Sveg Airport 12 00:50 2022-07-03 SE-Z EVG ESND 022250Z AUTO 09002KT 9999 FEW034/// BKN057/// 12/// Q1015= ESNG Gällivare Airport 19 00:50 2022-07-03 SE-BD GEV ESNG 022250Z AUTO 12005KT 9999 FEW110/// 19/17 Q1010=
ESNK Kramfors / Sollefteå/Kram 15 00:50 2022-07-03 SE-Y KRF ESNK 022250Z AUTO 30004KT 9999 NCD 15/09 Q1013= ESNL Lycksele Airport 18 00:50 2022-07-03 SE-AC LYC ESNL 022250Z AUTO 16006KT 4100 DZ FEW007/// SCT011/// BKN019/// 18/16 Q1010= ESNN Sundsvall/ Härnösand/Sund 15 00:50 2022-07-03 SE-Y SDL ESNN 022250Z AUTO 27006KT 9999 NCD 15/12 Q1014= ESNO Örnsköldsvik Airport 18 00:50 2022-07-03 SE-Y OER ESNO 022250Z AUTO 26009KT 9999 FEW061/// 18/15 Q1012= ESNQ Kiruna Airport 20 00:50 2022-07-03 SE-BD KRN ESNQ 022250Z AUTO 18008KT 9999 SCT210/// 20/18 Q1010=
ESNS Skellefteå Airport 22 19:50 2022-07-02 SE-AC SFT ESNS 021750Z 17009KT 140V220 CAVOK 22/17 Q1012= ESNU Umeå Airport 18 00:50 2022-07-03 SE-AC UME ESNU 022250Z 19007KT 150V210 9999 SCT031 18/16 Q1012= ESNV Vilhelmina Airport 12 00:50 2022-07-03 SE-AC VHM ESNV 022250Z AUTO VRB02KT 9999 BKN190/// 12/10 Q1011= ESNX Arvidsjaur Airport 18 00:50 2022-07-03 SE-BD AJR ESNX 022250Z AUTO 12006KT 9999 BKN017/// BKN080/// 18/16 Q1010= ESNZ Åre Östersund Airport 11 00:50 2022-07-03 SE-Z OSD ESNZ 022250Z AUTO 24004KT 9999 NCD 11/09 Q1014=
ESOE Örebro Airport 13 00:50 2022-07-03 SE-T ORB ESOE 022250Z AUTO 19004KT 9999 NCD 13/10 Q1019= ESOH Hagfors Airport 10 00:50 2022-07-03 SE-S HFS ESOH 022250Z AUTO VRB01KT 9999 NCD 10/09 Q1017= ESOK Karlstad Airport 14 00:50 2022-07-03 SE-S KSD ESOK 022250Z AUTO 19004KT 9999 BKN043/// 14/09 Q1018= ESOW Stockholm Västerås Airpor 17 00:50 2022-07-03 SE-U VST ESOW 022250Z AUTO 22005KT 200V260 9999 NCD 17/11 Q1019= ESPA Luleå Airport 20 00:50 2022-07-03 SE-BD LLA ESPA 022250Z AUTO 17009KT 9999 FEW011/// OVC028/// 20/18 Q1012=
ESPE Vidsel Air Base 20 00:50 2022-07-03 SE-BD --- ESPE 022250Z AUTO 15009KT 9999 FEW110/// 20/17 Q1010= ESSA Stockholm-Arlanda Airport 15 00:50 2022-07-03 SE-AB ARN ESSA 022250Z 22005KT CAVOK 15/09 Q1018 NOSIG= ESSB Stockholm-Bromma Airport 13 00:50 2022-07-03 SE-AB BMA ESSB 022250Z AUTO 22003KT 9999 NCD 13/11 Q1019= ESSD Borlange Airport 14 00:50 2022-07-03 SE-W BLE ESSD 022250Z AUTO 25004KT 9999 NCD 14/10 Q1017= ESSL Linköping City Airport 15 00:50 2022-07-03 SE-E LPI ESSL 022250Z AUTO 21004KT 9999 NCD 15/11 Q1020=
ESSP Norrköping Airport 16 00:50 2022-07-03 SE-E NRK ESSP 022250Z 23005KT CAVOK 16/11 Q1020= ESST Torsby Airport 24 (19:20 2022-07-01) SE-S TYF ESST 011720Z 18005KT 9999 BKN035 24/19 Q1012= ESSV Visby Airport 15 00:50 2022-07-03 SE-I VBY ESSV 022250Z AUTO 20004KT 9999 NCD 15/13 Q1020= ESTA Ängelholm-Helsingborg Air 13 00:50 2022-07-03 SE-M AGH ESTA 022250Z AUTO 10002KT 9999 BKN190/// 13/11 Q1021= ESTL Ljungbyhed Airport 13 00:50 2022-07-03 SE-M --- ESTL 022250Z AUTO 11005KT 9999 NCD 13/13 Q1021=
ESUP Pajala Airport 21 00:50 2022-07-03 SE-BD PJA ESUP 022250Z AUTO 17009KT 130V210 9999 SCT086/// 21/19 Q1011= ESUT Hemavan Airport 11 00:50 2022-07-03 SE-AC HMV ESUT 022250Z AUTO /////KT 9999 SCT016/// OVC021/// 11/10 Q1011= (47 rader visades) Du kan lägga till id-beteckningen först på raden i valfri Lista 1 - 5 [top] ↕°C [1] [2] [3] [4] [5] ??? LISTOR 00-nr NOT MEDD MT METAR SYNOP SE SE-AB SE-C SE-D SE-E SE-F SE-G SE-H SE-I SE-K SE-M SE-N SE-O SE-P SE-T SE-U SE-W SE-X SE-Y SE-Z SE-AC SE-BD rådata flyg flyg_osd